Aviation Digital Data Service (ADDS)

Output produced by METARs form (1059 UTC 19 January 2019)
found at http://www.aviationweather.gov/metar/data/
 
MGGT 191000Z 03008KT 9999 FEW012 BKN070 14/13 Q1025 A3027
MGGT 190500Z 1906/2006 36012KT 9999 SCT016 TX25/1920Z TN13/1912Z 
     PROB30 1907/1914 5000 BR OVC010 
     BECMG 1915/1917 36008KT FEW018 
     TEMPO 1919/1924 18008KT SCT020 
     BECMG 2002/2004 36012KT SCT016
       
MGPB 191000Z 00000KT 9999 SCT016 SCT080 21/20 Q1014 A2994
MGPB 190500Z 1906/2006 00000KT 9999 SCT016 BKN080 TX28/1920Z TN21/1912Z 
     PROB30 1906/1912 8000 -RA BKN016 OVC080 
     BECMG 1915/1917 36008KT SCT018 
     TEMPO 1921/2002 04008KT SCT020 SCT080 
     BECMG 2001/2003 00000KT SCT016
       
MGSJ 190500Z 1906/2006 00000KT CAVOK TX32/1820Z TN21/1912Z 
     BECMG 1915/1917 18008KT 8000 NSC 
     BECMG 1919/1921 21008KT SCT020 
     BECMG 2000/2002 00000KT 
     BECMG 2001/2003 CAVOK